createdAt,value
2023-02-21T00:03:46.869Z,7.10
2023-02-21T00:08:07.381Z,7.15
2023-02-21T00:12:27.878Z,7.16
2023-02-21T00:16:48.493Z,7.30
2023-02-21T00:21:09.090Z,7.27
2023-02-21T00:25:29.317Z,7.57
2023-02-21T00:29:50.072Z,7.53
2023-02-21T00:34:10.990Z,7.50
2023-02-21T00:38:31.765Z,7.44
2023-02-21T00:42:52.531Z,7.40
2023-02-21T00:47:12.422Z,7.46
2023-02-21T00:51:33.628Z,7.37
2023-02-21T00:55:54.109Z,7.48
2023-02-21T01:00:14.780Z,7.58
2023-02-21T01:04:35.049Z,7.52
2023-02-21T01:08:58.659Z,7.50
2023-02-21T01:13:19.331Z,7.63
2023-02-21T01:17:40.099Z,7.82
2023-02-21T01:22:00.750Z,7.84
2023-02-21T01:26:21.213Z,7.71
2023-02-21T01:30:42.089Z,7.70
2023-02-21T01:35:02.648Z,7.63
2023-02-21T01:39:23.109Z,7.54
2023-02-21T01:43:46.211Z,7.61
2023-02-21T01:48:06.776Z,7.59
2023-02-21T01:52:27.157Z,7.62
2023-02-21T01:56:49.036Z,7.69
2023-02-21T02:01:09.811Z,7.63
2023-02-21T02:05:32.131Z,7.61
2023-02-21T02:09:52.464Z,7.52
2023-02-21T02:14:23.330Z,7.39
2023-02-21T03:04:26.222Z,7.51
2023-02-21T03:09:02.211Z,7.52
2023-02-21T03:13:36.669Z,7.42
2023-02-21T03:17:48.503Z,7.54
2023-02-21T03:22:18.049Z,7.49
2023-02-21T03:26:21.249Z,7.47
2023-02-21T03:30:42.589Z,7.58
2023-02-21T03:34:51.272Z,7.50
2023-02-21T03:38:58.886Z,7.51
2023-02-21T03:43:05.328Z,7.54
2023-02-21T03:47:12.014Z,7.44
2023-02-21T03:51:15.208Z,7.56
2023-02-21T03:55:19.107Z,7.39
2023-02-21T03:59:21.941Z,7.11
2023-02-21T04:03:25.746Z,7.17
2023-02-21T04:07:31.993Z,7.16
2023-02-21T04:11:34.725Z,7.13
2023-02-21T04:15:46.275Z,7.09
2023-02-21T04:19:49.138Z,7.14
2023-02-21T04:23:56.239Z,7.09
2023-02-21T04:28:03.821Z,7.15
2023-02-21T04:32:06.621Z,7.03
2023-02-21T04:36:11.118Z,6.94
2023-02-21T04:40:18.195Z,6.94
2023-02-21T04:44:23.550Z,6.92
2023-02-21T04:48:26.339Z,6.87
2023-02-21T04:52:33.850Z,6.91
2023-02-21T04:56:37.992Z,7.00
2023-02-21T05:00:40.559Z,6.93
2023-02-21T05:04:43.273Z,6.92
2023-02-21T05:08:45.715Z,6.98
2023-02-21T05:12:48.203Z,6.88
2023-02-21T05:16:50.484Z,6.84
2023-02-21T05:20:52.652Z,6.83
2023-02-21T05:24:55.050Z,6.75
2023-02-21T05:28:57.344Z,6.83
2023-02-21T05:32:59.653Z,6.74
2023-02-21T05:37:02.283Z,6.62
2023-02-21T05:41:07.515Z,6.81
2023-02-21T05:45:10.227Z,6.80
2023-02-21T05:49:12.619Z,6.81
2023-02-21T05:53:14.761Z,6.87
2023-02-21T05:57:17.026Z,6.90
2023-02-21T06:01:19.239Z,6.95
2023-02-21T06:05:22.326Z,6.96
2023-02-21T06:09:24.643Z,6.89
2023-02-21T06:13:27.133Z,6.92
2023-02-21T06:17:29.463Z,6.94
2023-02-21T06:21:31.791Z,6.90
2023-02-21T06:25:34.247Z,7.01
2023-02-21T06:29:36.498Z,6.88
2023-02-21T06:33:40.774Z,7.03
2023-02-21T06:37:42.997Z,6.98
2023-02-21T06:42:37.868Z,7.04
2023-02-21T06:46:40.583Z,6.95
2023-02-21T06:50:43.506Z,7.00
2023-02-21T06:54:48.823Z,7.05
2023-02-21T06:58:50.951Z,6.98
2023-02-21T07:02:53.675Z,6.98
2023-02-21T07:06:56.033Z,7.01
2023-02-21T07:10:58.394Z,7.10
2023-02-21T07:15:00.711Z,6.92
2023-02-21T07:19:03.144Z,6.95
2023-02-21T07:23:05.502Z,6.81
2023-02-21T07:27:09.981Z,6.86
2023-02-21T07:31:12.493Z,6.91
2023-02-21T07:35:14.877Z,7.12
2023-02-21T07:39:17.352Z,6.91
2023-02-21T07:43:20.605Z,6.88
2023-02-21T07:47:31.834Z,6.91
2023-02-21T07:51:34.189Z,6.90
2023-02-21T07:55:36.490Z,6.89
2023-02-21T07:59:38.836Z,6.97
2023-02-21T08:04:06.512Z,6.91
2023-02-21T08:08:10.333Z,6.96
2023-02-21T08:12:12.896Z,6.98
2023-02-21T08:16:15.396Z,6.99
2023-02-21T08:20:18.911Z,7.07
2023-02-21T08:24:21.549Z,6.91
2023-02-21T08:28:24.257Z,6.58
2023-02-21T08:32:26.874Z,6.51
2023-02-21T08:36:37.147Z,6.78
2023-02-21T08:40:39.697Z,6.89
2023-02-21T08:44:44.887Z,6.82
2023-02-21T08:48:50.359Z,6.86
2023-02-21T08:52:53.135Z,6.88
2023-02-21T08:56:55.581Z,7.06
2023-02-21T09:01:47.956Z,7.13
2023-02-21T09:05:55.939Z,6.95
2023-02-21T09:10:00.785Z,7.15
2023-02-21T09:14:11.022Z,7.37
2023-02-21T09:18:16.714Z,7.15
2023-02-21T09:22:19.182Z,7.36
2023-02-21T09:26:25.903Z,6.81
2023-02-21T09:30:42.123Z,6.75
2023-02-21T09:34:47.772Z,6.80
2023-02-21T09:38:51.375Z,6.70
2023-02-21T09:42:56.820Z,6.75
2023-02-21T09:47:03.927Z,6.89
2023-02-21T09:51:08.833Z,6.88
2023-02-21T09:55:34.127Z,7.05
2023-02-21T09:59:36.319Z,6.94
2023-02-21T10:03:52.046Z,6.85
2023-02-21T10:08:03.948Z,6.98
2023-02-21T10:12:15.041Z,7.22
2023-02-21T10:16:39.240Z,7.41
2023-02-21T10:20:47.767Z,7.58
2023-02-21T10:24:52.818Z,7.48
2023-02-21T10:28:57.016Z,7.51
2023-02-21T10:32:59.219Z,7.62
2023-02-21T10:37:21.569Z,7.93
2023-02-21T10:41:27.572Z,7.75
2023-02-21T10:45:36.402Z,7.73
2023-02-21T10:49:53.317Z,7.51
2023-02-21T10:54:23.005Z,7.22
2023-02-21T10:58:27.987Z,6.98
2023-02-21T11:02:42.686Z,6.89
2023-02-21T11:06:48.018Z,6.51
2023-02-21T11:10:55.518Z,6.56
2023-02-21T11:14:57.511Z,6.62
2023-02-21T11:19:07.561Z,6.59
2023-02-21T11:23:21.963Z,6.67
2023-02-21T11:27:25.049Z,6.65
2023-02-21T11:31:29.343Z,6.80
2023-02-21T11:35:39.714Z,6.94
2023-02-21T11:39:42.180Z,7.46
2023-02-21T11:43:50.825Z,7.52
2023-02-21T11:48:04.167Z,7.68
2023-02-21T11:52:11.922Z,7.75
2023-02-21T11:56:30.934Z,7.58
2023-02-21T12:00:45.449Z,7.52
2023-02-21T12:05:01.551Z,7.42
2023-02-21T12:09:28.904Z,7.29
2023-02-21T12:13:47.964Z,7.23
2023-02-21T12:17:50.006Z,7.23
2023-02-21T12:22:16.410Z,7.28
2023-02-21T12:26:28.786Z,6.92
2023-02-21T12:30:37.632Z,6.80
2023-02-21T12:35:19.248Z,6.93
2023-02-21T12:39:44.017Z,7.24
2023-02-21T12:43:52.720Z,7.55
2023-02-21T12:48:04.158Z,7.73
2023-02-21T12:52:19.183Z,7.88
2023-02-21T12:56:35.044Z,7.88
2023-02-21T13:00:44.306Z,8.32
2023-02-21T13:04:52.785Z,8.19
2023-02-21T13:09:24.728Z,8.22
2023-02-21T13:13:34.281Z,8.18
2023-02-21T13:17:53.259Z,8.38
2023-02-21T13:22:58.881Z,8.17
2023-02-21T13:27:54.355Z,8.15
2023-02-21T13:32:20.364Z,8.19
2023-02-21T13:36:32.043Z,8.00
2023-02-21T13:40:57.614Z,7.91
2023-02-21T13:45:23.913Z,7.91
2023-02-21T13:49:55.255Z,7.92
2023-02-21T13:54:11.225Z,7.77
2023-02-21T13:58:18.978Z,7.69
2023-02-21T14:02:31.082Z,7.68
2023-02-21T14:06:39.401Z,7.67
2023-02-21T14:10:49.029Z,7.65
2023-02-21T14:14:52.737Z,7.60
2023-02-21T14:18:54.946Z,7.64
2023-02-21T14:22:59.763Z,7.66
2023-02-21T14:27:23.613Z,7.69
2023-02-21T14:31:48.505Z,7.59
2023-02-21T14:36:04.435Z,7.70
2023-02-21T14:40:09.452Z,7.70
2023-02-21T14:44:52.855Z,7.72
2023-02-21T14:49:01.520Z,7.58
2023-02-21T14:53:12.614Z,7.74
2023-02-21T14:57:23.902Z,7.57
2023-02-21T15:01:42.114Z,7.65
2023-02-21T15:06:02.826Z,7.58
2023-02-21T15:10:17.559Z,7.50
2023-02-21T15:14:24.268Z,7.59
2023-02-21T15:18:35.560Z,7.51
2023-02-21T15:22:37.953Z,7.65
2023-02-21T15:26:40.317Z,7.57
2023-02-21T15:30:42.922Z,7.53
2023-02-21T15:34:47.462Z,7.62
2023-02-21T15:39:03.649Z,7.26
2023-02-21T15:43:07.428Z,7.60
2023-02-21T15:47:15.884Z,7.47
2023-02-21T15:51:19.275Z,7.34
2023-02-21T15:55:25.802Z,7.28
2023-02-21T15:59:29.697Z,7.15
2023-02-21T16:03:47.063Z,6.97
2023-02-21T16:07:54.113Z,6.56
2023-02-21T16:12:08.033Z,6.44
2023-02-21T16:16:10.765Z,6.47
2023-02-21T16:20:13.549Z,6.58
2023-02-21T16:24:30.912Z,6.43
2023-02-21T16:28:33.432Z,6.66
2023-02-21T16:32:36.079Z,6.74
2023-02-21T16:36:40.948Z,6.51
2023-02-21T16:40:43.539Z,6.86
2023-02-21T16:44:47.914Z,6.89
2023-02-21T16:48:52.419Z,6.90
2023-02-21T16:52:54.700Z,6.97
2023-02-21T16:56:57.236Z,7.19
2023-02-21T17:01:14.356Z,7.03
2023-02-21T17:05:17.778Z,7.12
2023-02-21T17:09:25.061Z,7.22
2023-02-21T17:13:27.394Z,7.12
2023-02-21T17:17:29.836Z,7.09
2023-02-21T17:21:32.678Z,7.15
2023-02-21T17:25:36.595Z,7.09
2023-02-21T17:29:38.887Z,7.20
2023-02-21T17:33:41.317Z,7.21
2023-02-21T17:37:44.084Z,7.23
2023-02-21T17:41:48.383Z,7.17
2023-02-21T17:45:50.554Z,7.11
2023-02-21T17:49:54.807Z,7.17
2023-02-21T17:53:57.812Z,7.13
2023-02-21T17:58:00.105Z,7.07
2023-02-21T18:02:02.877Z,7.07
2023-02-21T18:06:05.510Z,7.06
2023-02-21T18:10:07.968Z,7.13
2023-02-21T18:14:10.074Z,7.16
2023-02-21T18:18:12.273Z,7.01
2023-02-21T18:22:14.600Z,7.12
2023-02-21T18:26:17.215Z,7.13
2023-02-21T18:30:19.971Z,7.01
2023-02-21T18:34:22.324Z,6.88
2023-02-21T18:38:25.598Z,6.79
2023-02-21T18:42:27.876Z,6.53
2023-02-21T18:46:30.719Z,6.55
2023-02-21T18:50:33.064Z,6.41
2023-02-21T18:54:35.471Z,6.51
2023-02-21T18:58:39.131Z,6.47
2023-02-21T19:02:41.342Z,6.50
2023-02-21T19:06:44.079Z,6.51
2023-02-21T19:10:46.725Z,6.31
2023-02-21T19:14:49.078Z,6.35
2023-02-21T19:18:56.580Z,6.28
2023-02-21T19:22:58.751Z,6.28
2023-02-21T19:27:01.229Z,6.24
2023-02-21T19:31:09.155Z,6.38
2023-02-21T19:35:11.614Z,6.12
2023-02-21T19:39:13.831Z,6.26
2023-02-21T19:43:16.193Z,6.18
2023-02-21T19:47:18.285Z,6.22
2023-02-21T19:51:23.936Z,6.20
2023-02-21T19:55:28.929Z,6.12
2023-02-21T19:59:31.290Z,6.07
2023-02-21T20:03:33.880Z,6.09
2023-02-21T20:07:36.259Z,5.99
2023-02-21T20:11:40.476Z,6.09
2023-02-21T20:15:42.775Z,5.79
2023-02-21T20:19:45.061Z,6.09
2023-02-21T20:23:47.339Z,6.16
2023-02-21T20:27:49.712Z,6.17
2023-02-21T20:31:52.032Z,6.20
2023-02-21T20:35:54.492Z,6.16
2023-02-21T20:39:57.831Z,6.12
2023-02-21T20:44:00.294Z,6.24
2023-02-21T20:48:02.610Z,6.10
2023-02-21T20:52:05.254Z,6.18
2023-02-21T20:56:07.146Z,6.09
2023-02-21T21:00:10.281Z,6.08
2023-02-21T21:04:12.608Z,5.96
2023-02-21T21:08:14.888Z,5.60
2023-02-21T21:12:23.855Z,5.48
2023-02-21T21:16:26.180Z,5.36
2023-02-21T21:20:28.402Z,5.32
2023-02-21T21:24:32.071Z,5.30
2023-02-21T21:28:35.978Z,5.28
2023-02-21T21:32:39.486Z,5.22
2023-02-21T21:36:45.572Z,5.17
2023-02-21T21:40:47.935Z,5.15
2023-02-21T21:44:56.162Z,5.12
2023-02-21T21:48:58.503Z,5.07
2023-02-21T21:53:03.309Z,5.06
2023-02-21T21:57:06.881Z,5.06
2023-02-21T22:01:09.452Z,5.10
2023-02-21T22:05:13.206Z,5.00
2023-02-21T22:09:16.462Z,5.04
2023-02-21T22:13:20.723Z,4.94
2023-02-21T22:17:23.073Z,5.01
2023-02-21T22:21:26.676Z,5.03
2023-02-21T22:25:30.698Z,4.90
2023-02-21T22:29:32.952Z,4.99
2023-02-21T22:33:35.237Z,5.09
2023-02-21T22:37:37.379Z,5.03
2023-02-21T22:41:40.015Z,4.96
2023-02-21T22:45:49.629Z,5.10
2023-02-21T22:49:52.034Z,5.13
2023-02-21T22:53:54.260Z,5.01
2023-02-21T22:57:58.748Z,4.84
2023-02-21T23:02:01.647Z,4.87
2023-02-21T23:06:07.004Z,4.83
2023-02-21T23:10:16.490Z,4.82
2023-02-21T23:14:22.140Z,4.78
2023-02-21T23:18:26.079Z,4.72
2023-02-21T23:22:28.001Z,4.77
2023-02-21T23:26:30.197Z,4.66
2023-02-21T23:30:45.083Z,4.63
2023-02-21T23:34:50.729Z,4.70
2023-02-21T23:38:53.011Z,4.61
2023-02-21T23:42:55.250Z,4.71
2023-02-21T23:46:59.386Z,4.49
2023-02-21T23:51:01.623Z,4.49
2023-02-21T23:55:04.243Z,4.25
2023-02-21T23:59:06.554Z,4.13
